Terminal Aerodrome Forecast
Issued by NWS Sioux Falls, SD

Home | Current Version | Previous Version | Graphics & Text | Print | Product List | Glossary Off
Versions: 1 2 3 4 5 6 7 8 9 10 11 12 13 14

000
FTUS43 KFSD 122337
TAFFSD
TAF
KFSD 122337Z 1300/1324 22008KT P6SM FEW200
     FM130500 25008KT P6SM SCT250
     FM130700 27009KT P6SM SCT200 WS011/30040KT
     FM130900 29016G24KT P6SM BKN200 WS014/31045KT
     FM131200 32024G33KT P6SM VCSH BKN090
     FM131400 32025G36KT P6SM OVC025=

USA.gov is the U.S. government's official web portal to all federal, state and local government web resources and services.